Atwood, IN (46502)

2:41 AM EST on February 13, 2016 (GMT -0500)
Yeiter and Son | | Change Station
CLOSE
Current Station
Personal Weather Station
Location: Warsaw, IN
Elevation: 950 ft
Nearby Weather Stations

Elev 950 ft 41.23 °N, 85.99 °W | Updated 1 minute ago

Snow
Snow
10.6 °F
Feels Like 11 °F
N
0.0
Wind Variable Wind from North
Gusts 5.0 mph

Today
High -- | Low -- °F
--% Chance of Precip.
Yesterday
High -- | Low -- °F
Precip. -- in
Pressure 30.38 in
Visibility 10.0 miles
Clouds Mostly Cloudy 2600 ft
Mostly Cloudy 3300 ft
Overcast 3900 ft
Windchill 11 °F
Dew Point 8 °F
Humidity 87%
Rainfall 0.00 in
Snow Depth Not available.
7:41 AM 6:14 PM
Waxing Crescent, 28% visible
METAR KASW 130735Z AUTO 01006KT 10SM BKN026 BKN033 OVC039 M12/M16 A3038 RMK AO2
Pressure 30.38 in
Visibility 10.0 miles
Clouds Mostly Cloudy 2600 ft
Mostly Cloudy 3300 ft
Overcast 3900 ft
Windchill 11 °F
Dew Point 8 °F
Humidity 87%
Rainfall 0.00 in
Snow Depth Not available.
7:41 AM 6:14 PM
Waxing Crescent, 28% visible
METAR KASW 130735Z AUTO 01006KT 10SM BKN026 BKN033 OVC039 M12/M16 A3038 RMK AO2

10-Day Weather Forecast

Almanac

Astronomy

Feb. 13, 2016 Rise Set
Actual Time
Civil Twilight
Nautical Twilight
Astronomical Twilight
Moon
Length of Visible Light
Length of Day
Tomorrow will be .
, % of the Moon is Illuminated

Today's Extremes

State Highs State Lows

Community

WunderPhotos

Upload Photos

1,892,526 photos uploaded!

WunderBlog® & News

Nearby

Air Quality

  Air Quality AQ Index Pollutant
Not available.

Snow Depth

Station Depth Elevation

Earthquake Activity

City Distance Mag. Time & Date
Minimum magnitude displayed is 2.5.

Coastal Water Temperatures

Place Temperature

Stations

Nearby Weather Stations

Station Location Temp. Windchill Dew Point Humidity Wind Precip. Elev Updated Type
                   

Watches & Warnings

There are currently no watches in effect.